createdAt,value
2018-03-16T00:02:24.789Z,4.90
2018-03-16T00:04:50.886Z,5.00
2018-03-16T00:07:16.948Z,4.80
2018-03-16T00:09:43.028Z,4.90
2018-03-16T00:12:09.053Z,4.90
2018-03-16T00:14:35.783Z,5.00
2018-03-16T00:17:01.860Z,5.00
2018-03-16T00:19:27.868Z,5.00
2018-03-16T00:21:53.860Z,5.10
2018-03-16T00:24:19.879Z,5.10
2018-03-16T00:26:45.918Z,5.20
2018-03-16T00:29:11.986Z,5.20
2018-03-16T00:31:38.023Z,5.30
2018-03-16T00:34:04.091Z,5.40
2018-03-16T00:36:30.157Z,5.40
2018-03-16T00:38:56.193Z,5.50
2018-03-16T00:41:22.992Z,5.30
2018-03-16T00:43:49.047Z,5.30
2018-03-16T00:46:15.077Z,5.40
2018-03-16T00:48:41.112Z,5.40
2018-03-16T00:51:07.112Z,5.40
2018-03-16T00:53:33.304Z,5.40
2018-03-16T00:55:59.292Z,5.50
2018-03-16T00:58:25.320Z,5.40
2018-03-16T01:00:51.327Z,5.50
2018-03-16T01:03:17.376Z,5.50
2018-03-16T01:05:44.179Z,5.40
2018-03-16T01:08:10.177Z,5.40
2018-03-16T01:10:36.203Z,5.50
2018-03-16T01:13:02.942Z,5.50
2018-03-16T01:15:29.764Z,5.50
2018-03-16T01:17:55.755Z,5.50
2018-03-16T01:20:22.523Z,5.50
2018-03-16T01:22:48.543Z,5.50
2018-03-16T01:25:15.343Z,5.50
2018-03-16T01:27:41.335Z,5.50
2018-03-16T01:30:08.111Z,5.50
2018-03-16T01:32:34.121Z,5.50
2018-03-16T01:35:00.867Z,5.60
2018-03-16T01:37:27.656Z,5.70
2018-03-16T01:39:53.649Z,5.70
2018-03-16T01:42:19.898Z,5.60
2018-03-16T01:44:45.956Z,5.60
2018-03-16T01:47:12.756Z,5.70
2018-03-16T01:49:38.771Z,5.70
2018-03-16T01:52:04.760Z,5.80
2018-03-16T01:54:30.783Z,5.80
2018-03-16T01:56:56.787Z,5.90
2018-03-16T01:59:22.806Z,5.60
2018-03-16T02:01:48.851Z,5.50
2018-03-16T02:04:14.924Z,5.60
2018-03-16T02:06:47.903Z,5.60
2018-03-16T02:09:13.995Z,5.60
2018-03-16T02:11:40.769Z,5.60
2018-03-16T02:14:06.775Z,5.60
2018-03-16T02:16:32.852Z,5.60
2018-03-16T02:18:58.864Z,5.50
2018-03-16T02:21:25.632Z,5.50
2018-03-16T02:23:52.383Z,5.40
2018-03-16T02:26:19.157Z,5.30
2018-03-16T02:28:45.252Z,5.30
2018-03-16T02:31:11.258Z,5.40
2018-03-16T02:33:37.301Z,5.40
2018-03-16T02:36:03.323Z,5.40
2018-03-16T02:38:29.313Z,5.30
2018-03-16T02:40:56.079Z,5.40
2018-03-16T02:43:22.848Z,5.30
2018-03-16T02:45:48.861Z,5.30
2018-03-16T02:48:15.696Z,5.20
2018-03-16T02:50:41.703Z,5.20
2018-03-16T02:53:07.697Z,5.10
2018-03-16T02:55:34.484Z,5.30
2018-03-16T02:58:00.506Z,5.30
2018-03-16T03:00:26.492Z,5.20
2018-03-16T03:02:52.511Z,5.20
2018-03-16T03:05:18.576Z,5.00
2018-03-16T03:07:44.630Z,5.10
2018-03-16T03:10:10.638Z,5.20
2018-03-16T03:12:36.667Z,5.30
2018-03-16T03:15:02.670Z,5.40
2018-03-16T03:17:28.715Z,5.30
2018-03-16T03:19:54.739Z,5.10
2018-03-16T03:22:20.776Z,5.20
2018-03-16T03:24:46.826Z,5.30
2018-03-16T03:27:12.823Z,5.20
2018-03-16T03:29:38.844Z,5.10
2018-03-16T03:32:04.859Z,5.10
2018-03-16T03:34:30.883Z,5.20
2018-03-16T03:36:56.871Z,5.20
2018-03-16T03:39:22.878Z,5.20
2018-03-16T03:41:49.627Z,5.40
2018-03-16T03:44:15.665Z,5.40
2018-03-16T03:46:41.691Z,5.40
2018-03-16T03:49:07.691Z,5.60
2018-03-16T03:51:33.728Z,5.50
2018-03-16T03:53:59.714Z,5.60
2018-03-16T03:56:25.764Z,5.60
2018-03-16T03:58:51.779Z,5.60
2018-03-16T04:01:17.817Z,5.50
2018-03-16T04:03:43.910Z,5.40
2018-03-16T04:06:10.642Z,5.40
2018-03-16T04:08:37.388Z,5.40
2018-03-16T04:11:03.399Z,5.40
2018-03-16T04:13:29.395Z,5.40
2018-03-16T04:15:55.418Z,5.60
2018-03-16T04:18:22.143Z,5.50
2018-03-16T04:20:48.259Z,5.50
2018-03-16T04:23:14.278Z,5.40
2018-03-16T04:25:40.304Z,5.40
2018-03-16T04:28:06.331Z,5.50
2018-03-16T04:30:33.105Z,5.40
2018-03-16T04:32:59.092Z,5.40
2018-03-16T04:35:25.115Z,5.50
2018-03-16T04:37:51.143Z,5.50
2018-03-16T04:40:17.156Z,5.40
2018-03-16T04:42:43.227Z,5.50
2018-03-16T04:45:16.165Z,5.50
2018-03-16T04:47:42.940Z,5.30
2018-03-16T04:50:08.927Z,5.40
2018-03-16T04:52:34.977Z,5.50
2018-03-16T04:55:01.726Z,5.30
2018-03-16T04:57:27.774Z,5.30
2018-03-16T04:59:54.553Z,5.20
2018-03-16T05:02:20.574Z,5.20
2018-03-16T05:04:47.326Z,5.30
2018-03-16T05:07:14.111Z,5.40
2018-03-16T05:09:40.114Z,5.40
2018-03-16T05:12:06.874Z,5.30
2018-03-16T05:14:33.662Z,5.10
2018-03-16T05:16:59.647Z,5.10
2018-03-16T05:19:25.675Z,5.20
2018-03-16T05:21:51.671Z,5.20
2018-03-16T05:24:17.755Z,5.10
2018-03-16T05:26:44.565Z,4.90
2018-03-16T05:29:10.599Z,4.80
2018-03-16T05:31:36.631Z,5.10
2018-03-16T05:34:02.634Z,5.20
2018-03-16T05:36:28.659Z,5.10
2018-03-16T05:38:54.685Z,5.10
2018-03-16T05:41:20.710Z,5.00
2018-03-16T05:43:46.723Z,5.00
2018-03-16T05:46:12.750Z,5.00
2018-03-16T05:48:38.790Z,5.00
2018-03-16T05:51:04.795Z,4.90
2018-03-16T05:53:30.788Z,4.90
2018-03-16T05:55:56.816Z,5.10
2018-03-16T05:58:22.804Z,5.00
2018-03-16T06:00:48.894Z,5.00
2018-03-16T06:03:15.631Z,5.00
2018-03-16T06:05:41.620Z,5.00
2018-03-16T06:08:07.630Z,4.90
2018-03-16T06:10:33.661Z,4.90
2018-03-16T06:12:59.645Z,4.90
2018-03-16T06:15:26.405Z,5.00
2018-03-16T06:17:53.124Z,5.00
2018-03-16T06:20:19.111Z,5.00
2018-03-16T06:22:45.155Z,4.90
2018-03-16T06:25:11.153Z,4.90
2018-03-16T06:27:37.171Z,4.80
2018-03-16T06:30:03.197Z,4.90
2018-03-16T06:32:29.195Z,4.90
2018-03-16T06:34:55.219Z,5.00
2018-03-16T06:37:21.952Z,5.00
2018-03-16T06:39:47.999Z,5.00
2018-03-16T06:42:14.908Z,4.90
2018-03-16T06:44:40.949Z,4.90
2018-03-16T06:47:06.955Z,5.00
2018-03-16T06:49:32.963Z,4.90
2018-03-16T06:51:58.956Z,5.00
2018-03-16T06:54:24.979Z,4.80
2018-03-16T06:56:50.977Z,4.80
2018-03-16T06:59:17.770Z,4.90
2018-03-16T07:01:43.796Z,4.90
2018-03-16T07:04:09.795Z,4.90
2018-03-16T07:06:35.811Z,4.90
2018-03-16T07:09:01.832Z,4.80
2018-03-16T07:11:27.892Z,4.70
2018-03-16T07:13:53.888Z,4.70
2018-03-16T07:16:19.926Z,4.90
2018-03-16T07:18:46.034Z,4.60
2018-03-16T07:21:12.815Z,4.70
2018-03-16T07:23:38.814Z,4.70
2018-03-16T07:26:04.844Z,4.80
2018-03-16T07:28:30.852Z,4.90
2018-03-16T07:30:56.921Z,4.90
2018-03-16T07:33:22.912Z,4.80
2018-03-16T07:35:48.951Z,4.70
2018-03-16T07:38:15.035Z,4.80
2018-03-16T07:40:41.022Z,4.70
2018-03-16T07:43:07.073Z,4.90
2018-03-16T07:45:39.315Z,5.10
2018-03-16T07:48:05.376Z,5.10
2018-03-16T07:50:31.362Z,5.00
2018-03-16T07:52:57.383Z,5.10
2018-03-16T07:55:23.372Z,5.10
2018-03-16T07:57:49.368Z,4.90
2018-03-16T08:00:15.425Z,5.00
2018-03-16T08:02:41.459Z,4.70
2018-03-16T08:05:07.455Z,4.90
2018-03-16T08:07:34.219Z,4.80
2018-03-16T08:10:00.245Z,4.80
2018-03-16T08:12:26.979Z,4.90
2018-03-16T08:14:52.998Z,4.90
2018-03-16T08:17:19.023Z,5.00
2018-03-16T08:19:45.107Z,4.90
2018-03-16T08:22:11.919Z,4.90
2018-03-16T08:24:37.911Z,4.90
2018-03-16T08:27:03.919Z,4.80
2018-03-16T08:29:29.943Z,4.90
2018-03-16T08:31:55.946Z,4.90
2018-03-16T08:34:21.963Z,4.70
2018-03-16T08:36:47.988Z,4.80
2018-03-16T08:39:14.780Z,5.00
2018-03-16T08:41:40.823Z,5.00
2018-03-16T08:44:06.802Z,5.00
2018-03-16T08:46:33.591Z,5.00
2018-03-16T08:48:59.594Z,5.00
2018-03-16T08:51:26.311Z,5.00
2018-03-16T08:53:52.323Z,5.00
2018-03-16T08:56:18.327Z,4.70
2018-03-16T08:58:45.116Z,4.70
2018-03-16T09:01:11.085Z,4.70
2018-03-16T09:03:37.107Z,4.70
2018-03-16T09:06:03.105Z,4.50
2018-03-16T09:08:29.115Z,4.40
2018-03-16T09:10:55.115Z,4.50
2018-03-16T09:13:21.157Z,4.40
2018-03-16T09:15:47.142Z,4.50
2018-03-16T09:18:13.936Z,4.80
2018-03-16T09:20:39.954Z,4.70
2018-03-16T09:23:05.963Z,4.80
2018-03-16T09:25:32.767Z,4.50
2018-03-16T09:27:58.784Z,4.50
2018-03-16T09:30:24.819Z,4.30
2018-03-16T09:32:50.815Z,4.40
2018-03-16T09:35:16.843Z,4.50
2018-03-16T09:37:42.833Z,4.40
2018-03-16T09:40:08.827Z,4.40
2018-03-16T09:42:34.867Z,4.20
2018-03-16T09:45:00.880Z,4.10
2018-03-16T09:47:26.894Z,4.20
2018-03-16T09:49:52.888Z,4.30
2018-03-16T09:52:19.654Z,4.00
2018-03-16T09:54:58.731Z,4.00
2018-03-16T09:57:24.765Z,4.00
2018-03-16T09:59:50.746Z,3.90
2018-03-16T10:02:16.769Z,4.00
2018-03-16T10:04:42.767Z,4.00
2018-03-16T10:07:08.783Z,4.10
2018-03-16T10:09:34.828Z,4.10
2018-03-16T10:12:00.856Z,4.10
2018-03-16T10:14:26.885Z,4.10
2018-03-16T10:16:53.658Z,3.70
2018-03-16T10:19:19.700Z,3.70
2018-03-16T10:21:45.723Z,3.70
2018-03-16T10:24:12.449Z,3.50
2018-03-16T10:26:38.526Z,3.50
2018-03-16T10:29:04.554Z,3.60
2018-03-16T10:31:30.612Z,3.60
2018-03-16T10:33:56.646Z,3.70
2018-03-16T10:36:22.687Z,3.70
2018-03-16T10:38:48.711Z,3.50
2018-03-16T10:41:14.747Z,3.70
2018-03-16T10:43:40.767Z,3.50
2018-03-16T10:46:07.531Z,3.60
2018-03-16T10:48:33.540Z,3.60
2018-03-16T10:51:00.329Z,3.70
2018-03-16T10:53:26.315Z,3.70
2018-03-16T10:55:52.352Z,3.80
2018-03-16T10:58:18.430Z,3.90
2018-03-16T11:00:51.220Z,4.00
2018-03-16T11:03:17.995Z,4.10
2018-03-16T11:05:50.218Z,4.10
2018-03-16T11:08:22.344Z,3.90
2018-03-16T11:10:49.088Z,4.20
2018-03-16T11:13:15.881Z,4.30
2018-03-16T11:15:41.874Z,4.30
2018-03-16T11:18:08.664Z,4.00
2018-03-16T11:20:34.753Z,4.00
2018-03-16T11:23:00.892Z,4.10
2018-03-16T11:25:26.943Z,4.00
2018-03-16T11:27:53.736Z,3.70
2018-03-16T11:30:19.726Z,3.70
2018-03-16T11:32:45.753Z,3.80
2018-03-16T11:35:11.759Z,4.00
2018-03-16T11:37:37.755Z,3.90
2018-03-16T11:40:03.829Z,3.70
2018-03-16T11:42:29.822Z,3.30
2018-03-16T11:44:56.579Z,3.40
2018-03-16T11:47:23.299Z,3.50
2018-03-16T11:49:49.319Z,3.50
2018-03-16T11:52:15.307Z,3.50
2018-03-16T11:54:42.062Z,3.30
2018-03-16T11:57:08.793Z,3.30
2018-03-16T11:59:34.893Z,3.30
2018-03-16T12:02:00.882Z,3.40
2018-03-16T12:04:27.654Z,3.10
2018-03-16T12:06:54.423Z,3.10
2018-03-16T12:09:20.423Z,3.10
2018-03-16T12:11:46.440Z,3.10
2018-03-16T12:14:12.439Z,3.00
2018-03-16T12:16:38.471Z,3.20
2018-03-16T12:19:04.530Z,3.40
2018-03-16T12:21:30.555Z,3.50
2018-03-16T12:23:56.596Z,3.50
2018-03-16T12:26:22.591Z,3.50
2018-03-16T12:28:50.166Z,3.40
2018-03-16T12:31:15.424Z,3.40
2018-03-16T12:33:41.415Z,3.30
2018-03-16T12:36:07.456Z,3.40
2018-03-16T12:38:33.549Z,3.40
2018-03-16T12:40:59.522Z,3.30
2018-03-16T12:43:32.571Z,3.20
2018-03-16T12:45:58.607Z,3.10
2018-03-16T12:48:24.646Z,3.20
2018-03-16T12:50:50.638Z,3.20
2018-03-16T12:53:16.662Z,3.10
2018-03-16T12:55:42.657Z,3.10
2018-03-16T12:58:08.708Z,3.30
2018-03-16T13:00:34.740Z,3.10
2018-03-16T13:03:01.120Z,3.00
2018-03-16T13:05:28.595Z,2.80
2018-03-16T13:07:54.623Z,2.80
2018-03-16T13:10:20.654Z,3.00
2018-03-16T13:12:46.654Z,2.80
2018-03-16T13:15:12.684Z,2.70
2018-03-16T13:17:38.675Z,2.70
2018-03-16T13:20:04.779Z,2.90
2018-03-16T13:22:30.907Z,2.90
2018-03-16T13:24:56.939Z,2.80
2018-03-16T13:27:22.937Z,3.00
2018-03-16T13:29:48.981Z,2.80
2018-03-16T13:32:15.716Z,2.80
2018-03-16T13:34:41.707Z,2.80
2018-03-16T13:37:07.730Z,2.70
2018-03-16T13:39:34.547Z,2.60
2018-03-16T13:42:00.673Z,2.60
2018-03-16T13:44:26.663Z,2.70
2018-03-16T13:46:53.472Z,2.60
2018-03-16T13:49:19.488Z,2.60
2018-03-16T13:51:45.491Z,2.60
2018-03-16T13:54:11.532Z,2.70
2018-03-16T13:56:37.570Z,2.80
2018-03-16T13:59:03.618Z,2.80
2018-03-16T14:01:29.646Z,2.60
2018-03-16T14:03:55.665Z,2.50
2018-03-16T14:06:22.387Z,2.60
2018-03-16T14:08:48.425Z,2.60
2018-03-16T14:11:14.415Z,2.50
2018-03-16T14:13:40.471Z,2.50
2018-03-16T14:16:06.536Z,2.70
2018-03-16T14:18:32.588Z,2.60
2018-03-16T14:20:59.364Z,2.80
2018-03-16T14:23:26.094Z,2.70
2018-03-16T14:25:52.111Z,2.60
2018-03-16T14:28:18.115Z,2.60
2018-03-16T14:30:44.172Z,2.60
2018-03-16T14:33:10.150Z,2.60
2018-03-16T14:35:36.171Z,2.50
2018-03-16T14:38:02.180Z,2.40
2018-03-16T14:40:28.196Z,2.30
2018-03-16T14:42:54.242Z,2.20
2018-03-16T14:45:20.300Z,2.00
2018-03-16T14:47:53.203Z,2.10
2018-03-16T14:50:19.224Z,2.00
2018-03-16T14:52:45.231Z,1.90
2018-03-16T14:55:11.251Z,1.80
2018-03-16T14:57:37.259Z,1.80
2018-03-16T15:00:03.317Z,2.00
2018-03-16T15:02:29.344Z,2.10
2018-03-16T15:04:55.371Z,2.10
2018-03-16T15:07:21.427Z,2.30
2018-03-16T15:09:47.463Z,2.30
2018-03-16T15:12:13.460Z,2.30
2018-03-16T15:14:39.474Z,2.00
2018-03-16T15:17:06.228Z,2.00
2018-03-16T15:19:32.315Z,2.00
2018-03-16T15:21:58.308Z,2.00
2018-03-16T15:24:24.277Z,2.00
2018-03-16T15:26:50.296Z,2.10
2018-03-16T15:29:16.283Z,2.10
2018-03-16T15:31:42.225Z,2.00
2018-03-16T15:34:08.951Z,1.90
2018-03-16T15:36:35.023Z,1.90
2018-03-16T15:39:01.089Z,2.00
2018-03-16T15:41:27.185Z,2.00
2018-03-16T15:43:53.123Z,1.80
2018-03-16T15:46:19.066Z,1.80
2018-03-16T15:48:45.805Z,1.80
2018-03-16T15:51:11.782Z,1.80
2018-03-16T15:53:37.746Z,1.60
2018-03-16T15:56:03.779Z,1.60
2018-03-16T15:58:29.771Z,1.50
2018-03-16T16:00:55.725Z,1.30
2018-03-16T16:03:21.762Z,1.30
2018-03-16T16:05:47.743Z,1.40
2018-03-16T16:08:14.432Z,1.30
2018-03-16T16:10:41.152Z,1.20
2018-03-16T16:13:07.382Z,1.20
2018-03-16T16:15:33.353Z,1.20
2018-03-16T16:18:00.081Z,1.30
2018-03-16T16:20:26.058Z,1.30
2018-03-16T16:22:52.033Z,1.50
2018-03-16T16:25:17.979Z,1.60
2018-03-16T16:27:43.938Z,1.60
2018-03-16T16:30:09.914Z,1.50
2018-03-16T16:32:35.883Z,1.60
2018-03-16T16:35:01.918Z,1.70
2018-03-16T16:37:27.863Z,1.80
2018-03-16T16:39:53.862Z,1.70
2018-03-16T16:42:19.855Z,1.70
2018-03-16T16:44:45.842Z,1.70
2018-03-16T16:47:11.789Z,1.50
2018-03-16T16:49:37.748Z,1.40
2018-03-16T16:52:03.781Z,1.50
2018-03-16T16:54:29.736Z,1.20
2018-03-16T16:56:55.706Z,1.20
2018-03-16T16:59:21.715Z,0.90
2018-03-16T17:01:47.710Z,1.00
2018-03-16T17:04:13.654Z,1.10
2018-03-16T17:06:40.382Z,1.00
2018-03-16T17:09:06.352Z,1.00
2018-03-16T17:11:32.336Z,1.00
2018-03-16T17:13:58.307Z,1.00
2018-03-16T17:16:24.280Z,1.10
2018-03-16T17:18:50.346Z,0.90
2018-03-16T17:21:16.349Z,1.10
2018-03-16T17:23:42.289Z,0.90
2018-03-16T17:26:08.257Z,1.00
2018-03-16T17:28:34.375Z,1.20
2018-03-16T17:31:01.146Z,0.80
2018-03-16T17:33:27.121Z,0.80
2018-03-16T17:35:53.061Z,0.80
2018-03-16T17:38:19.050Z,0.70
2018-03-16T17:40:45.008Z,0.70
2018-03-16T17:43:10.986Z,0.60
2018-03-16T17:45:37.010Z,0.70
2018-03-16T17:48:03.038Z,0.70
2018-03-16T17:50:29.000Z,0.80
2018-03-16T17:52:54.974Z,1.00
2018-03-16T17:55:20.997Z,0.90
2018-03-16T17:57:46.956Z,0.80
2018-03-16T18:00:12.909Z,0.80
2018-03-16T18:02:38.881Z,0.70
2018-03-16T18:05:04.865Z,0.80
2018-03-16T18:07:30.874Z,0.80
2018-03-16T18:09:57.561Z,0.80
2018-03-16T18:12:23.506Z,0.80
2018-03-16T18:14:49.518Z,0.90
2018-03-16T18:17:15.507Z,1.00
2018-03-16T18:19:41.456Z,0.90
2018-03-16T18:22:07.461Z,0.90
2018-03-16T18:24:33.509Z,0.90
2018-03-16T18:26:59.470Z,0.90
2018-03-16T18:29:26.181Z,0.80
2018-03-16T18:31:52.197Z,0.80
2018-03-16T18:34:18.157Z,0.80
2018-03-16T18:36:44.121Z,1.00
2018-03-16T18:39:10.082Z,0.90
2018-03-16T18:41:36.861Z,0.80
2018-03-16T18:44:02.829Z,0.80
2018-03-16T18:46:28.777Z,0.80
2018-03-16T18:48:54.742Z,1.00
2018-03-16T18:51:21.470Z,0.90
2018-03-16T18:53:47.449Z,0.90
2018-03-16T18:56:13.419Z,0.90
2018-03-16T18:58:39.389Z,0.70
2018-03-16T19:01:06.113Z,0.90
2018-03-16T19:03:32.148Z,0.80
2018-03-16T19:05:58.133Z,0.80
2018-03-16T19:08:25.607Z,0.80
2018-03-16T19:10:51.551Z,0.80
2018-03-16T19:13:17.498Z,0.60
2018-03-16T19:15:43.636Z,0.70
2018-03-16T19:18:09.583Z,0.60
2018-03-16T19:20:35.694Z,0.50
2018-03-16T19:23:01.723Z,0.50
2018-03-16T19:25:27.709Z,0.60
2018-03-16T19:27:53.647Z,0.50
2018-03-16T19:30:19.612Z,0.30
2018-03-16T19:32:46.306Z,0.40
2018-03-16T19:35:12.270Z,0.40
2018-03-16T19:37:38.222Z,0.40
2018-03-16T19:40:04.239Z,0.30
2018-03-16T19:42:30.198Z,0.30
2018-03-16T19:44:57.678Z,0.20
2018-03-16T19:47:24.357Z,0.30
2018-03-16T19:49:50.391Z,0.30
2018-03-16T19:52:16.386Z,0.20
2018-03-16T19:54:42.377Z,0.30
2018-03-16T19:57:08.364Z,0.30
2018-03-16T19:59:34.350Z,0.10
2018-03-16T20:02:00.318Z,0.20
2018-03-16T20:04:26.342Z,0.20
2018-03-16T20:06:52.309Z,0.00
2018-03-16T20:09:18.255Z,0.20
2018-03-16T20:11:44.969Z,0.10
2018-03-16T20:14:10.904Z,0.10
2018-03-16T20:16:36.897Z,0.20
2018-03-16T20:19:03.657Z,0.30
2018-03-16T20:21:30.234Z,0.30
2018-03-16T20:23:56.228Z,0.40
2018-03-16T20:26:22.912Z,0.30
2018-03-16T20:28:48.881Z,0.30
2018-03-16T20:31:14.841Z,0.30
2018-03-16T20:33:40.810Z,0.50
2018-03-16T20:36:06.785Z,0.40
2018-03-16T20:38:32.770Z,0.40
2018-03-16T20:40:59.502Z,0.30
2018-03-16T20:43:25.578Z,0.20
2018-03-16T20:45:51.594Z,0.30
2018-03-16T20:48:18.297Z,0.40
2018-03-16T20:50:44.269Z,0.30
2018-03-16T20:53:10.226Z,0.60
2018-03-16T20:55:36.314Z,0.60
2018-03-16T20:58:02.294Z,0.60
2018-03-16T21:00:29.017Z,0.50
2018-03-16T21:02:54.978Z,0.50
2018-03-16T21:05:21.748Z,0.40
2018-03-16T21:07:48.428Z,0.40
2018-03-16T21:10:14.400Z,0.30
2018-03-16T21:12:40.346Z,0.30
2018-03-16T21:15:06.362Z,0.40
2018-03-16T21:17:32.394Z,0.50
2018-03-16T21:19:58.379Z,0.40
2018-03-16T21:22:25.134Z,0.10
2018-03-16T21:24:51.886Z,0.00
2018-03-16T21:27:17.867Z,-0.10
2018-03-16T21:29:43.805Z,-0.10
2018-03-16T21:32:09.745Z,-0.10
2018-03-16T21:34:35.786Z,0.10
2018-03-16T21:37:01.772Z,0.00
2018-03-16T21:39:28.470Z,0.00
2018-03-16T21:41:54.457Z,0.00
2018-03-16T21:44:20.454Z,0.00
2018-03-16T21:46:46.429Z,0.10
2018-03-16T21:49:13.105Z,0.00
2018-03-16T21:51:39.121Z,0.00
2018-03-16T21:54:05.117Z,0.10
2018-03-16T21:56:31.073Z,-0.10
2018-03-16T21:58:57.045Z,0.00
2018-03-16T22:01:23.041Z,-0.20
2018-03-16T22:03:49.045Z,-0.20
2018-03-16T22:06:15.011Z,-0.20
2018-03-16T22:08:40.989Z,-0.30
2018-03-16T22:11:06.981Z,-0.20
2018-03-16T22:13:32.957Z,-0.20
2018-03-16T22:15:58.933Z,-0.20
2018-03-16T22:18:24.869Z,-0.30
2018-03-16T22:20:50.853Z,-0.20
2018-03-16T22:23:17.540Z,-0.20
2018-03-16T22:25:43.518Z,-0.20
2018-03-16T22:28:09.458Z,-0.10
2018-03-16T22:30:36.225Z,-0.20
2018-03-16T22:33:02.213Z,-0.30
2018-03-16T22:35:28.152Z,-0.10
2018-03-16T22:37:54.143Z,-0.10
2018-03-16T22:40:20.121Z,-0.20
2018-03-16T22:42:46.103Z,-0.30
2018-03-16T22:45:12.813Z,-0.40
2018-03-16T22:47:38.781Z,-0.40
2018-03-16T22:50:05.549Z,-0.20
2018-03-16T22:52:32.284Z,-0.20
2018-03-16T22:54:59.021Z,-0.20
2018-03-16T22:57:24.994Z,-0.20
2018-03-16T22:59:51.714Z,-0.20
2018-03-16T23:02:17.660Z,-0.30
2018-03-16T23:04:43.654Z,-0.30
2018-03-16T23:07:09.637Z,-0.30
2018-03-16T23:09:35.640Z,-0.30
2018-03-16T23:12:01.686Z,-0.30
2018-03-16T23:14:27.658Z,-0.50
2018-03-16T23:16:54.345Z,-0.50
2018-03-16T23:19:20.328Z,-0.50
2018-03-16T23:21:46.301Z,-0.40
2018-03-16T23:24:12.237Z,-0.50
2018-03-16T23:26:38.271Z,-0.60
2018-03-16T23:29:04.322Z,-0.80
2018-03-16T23:31:30.262Z,-0.80
2018-03-16T23:33:56.246Z,-0.80
2018-03-16T23:36:22.213Z,-0.80
2018-03-16T23:38:48.145Z,-0.90
2018-03-16T23:41:14.158Z,-1.10
2018-03-16T23:43:40.104Z,-1.10
2018-03-16T23:46:06.858Z,-0.90
2018-03-16T23:48:33.619Z,-0.90
2018-03-16T23:51:00.318Z,-0.80
2018-03-16T23:53:26.302Z,-0.90
2018-03-16T23:55:53.020Z,-1.00
2018-03-16T23:58:18.960Z,-1.00
